Time;durP1;ratioP1;P1;durP2;ratioP2;P2;SDS_P1;SDS_P2;PMS_P1;PMS_P2;Temp;Humidity;BMP_temperature;BMP_pressure;BME280_temperature;BME280_humidity;BME280_pressure;Samples;Min_cycle;Max_cycle;Signal;HPM_P1;HPM_P2
2023/08/21 00:00:08;;;;;;;15.88;13.60;;;;;;;20.02;100.00;99552.38;5139733;28;20131;-61
2023/08/21 00:02:34;;;;;;;17.70;13.13;;;;;;;19.98;100.00;99537.72;5139294;28;20335;-54
2023/08/21 00:05:00;;;;;;;17.90;16.00;;;;;;;19.96;100.00;99531.81;5139666;28;20051;-56
2023/08/21 00:07:26;;;;;;;18.60;12.88;;;;;;;20.02;100.00;99529.31;5139150;27;20063;-59
2023/08/21 00:09:52;;;;;;;16.17;13.07;;;;;;;20.03;100.00;99533.72;5139653;28;20051;-56
2023/08/21 00:12:18;;;;;;;18.55;16.63;;;;;;;19.99;100.00;99525.38;5139034;27;20066;-57
2023/08/21 00:14:44;;;;;;;15.55;13.15;;;;;;;19.79;100.00;99528.06;5139715;28;20331;-60
2023/08/21 00:17:10;;;;;;;17.42;12.57;;;;;;;19.95;100.00;99511.53;5139094;28;20199;-60
2023/08/21 00:19:36;;;;;;;16.65;13.25;;;;;;;20.04;100.00;99510.22;5139012;28;20047;-61
2023/08/21 00:22:02;;;;;;;17.42;13.90;;;;;;;19.81;100.00;99510.94;5139207;28;20138;-63
2023/08/21 00:24:29;;;;;;;17.20;13.98;;;;;;;19.97;100.00;99505.56;5139067;28;20058;-58
2023/08/21 00:26:54;;;;;;;18.65;13.50;;;;;;;19.91;100.00;99512.78;5139312;28;20102;-59
2023/08/21 00:29:20;;;;;;;17.80;13.32;;;;;;;19.93;100.00;99513.16;5138852;28;20047;-56
2023/08/21 00:31:46;;;;;;;14.93;12.20;;;;;;;19.92;100.00;99512.34;5139258;28;20103;-54
2023/08/21 00:34:12;;;;;;;17.38;13.35;;;;;;;19.92;100.00;99517.16;5138735;28;20397;-56
2023/08/21 00:36:38;;;;;;;19.77;13.68;;;;;;;19.91;100.00;99510.00;5139248;28;20079;-56
2023/08/21 00:39:04;;;;;;;15.10;12.82;;;;;;;19.64;100.00;99498.88;5138714;27;20042;-62
2023/08/21 00:41:33;;;;;;;19.85;13.57;;;;;;;19.79;100.00;99486.31;5139120;28;20085;-62
2023/08/21 00:43:59;;;;;;;16.58;13.82;;;;;;;19.77;100.00;99482.41;5138847;28;20051;-56
2023/08/21 00:46:25;;;;;;;18.25;13.40;;;;;;;19.76;100.00;99481.63;5138582;28;20433;-57
2023/08/21 00:48:52;;;;;;;24.77;15.57;;;;;;;19.79;100.00;99450.16;5138618;28;20404;-62
2023/08/21 00:51:19;;;;;;;22.88;15.63;;;;;;;19.91;100.00;99432.09;5138662;28;20141;-61
2023/08/21 00:53:45;;;;;;;23.63;15.75;;;;;;;19.98;100.00;99412.50;5138859;28;20062;-58
2023/08/21 00:56:11;;;;;;;21.77;15.65;;;;;;;19.97;100.00;99414.50;5138440;28;20142;-56
2023/08/21 00:58:38;;;;;;;18.50;14.52;;;;;;;19.97;100.00;99410.94;5138716;28;20046;-60
2023/08/21 01:01:04;;;;;;;19.98;13.68;;;;;;;19.75;100.00;99429.97;5138463;28;20130;-63
2023/08/21 01:03:50;;;;;;;19.17;13.48;;;;;;;19.86;100.00;99404.75;5138636;28;20146;-61
2023/08/21 01:06:16;;;;;;;17.45;12.65;;;;;;;19.98;100.00;99427.19;5138183;28;20066;-56
2023/08/21 01:08:50;;;;;;;15.48;13.13;;;;;;;20.01;100.00;99452.63;5138466;27;20055;-61
2023/08/21 01:11:18;;;;;;;;;;;;;;;20.00;100.00;99471.31;5138892;28;20377;-62
2023/08/21 01:13:54;;;;;;;14.70;13.05;;;;;;;19.98;100.00;99491.19;5138438;28;20254;-62
2023/08/21 01:16:21;;;;;;;14.18;12.52;;;;;;;19.93;100.00;99502.81;5138354;28;20138;-60
2023/08/21 01:18:48;;;;;;;19.50;12.88;;;;;;;19.87;100.00;99493.38;5138316;28;20427;-59
2023/08/21 01:21:15;;;;;;;18.58;16.88;;;;;;;19.83;100.00;99491.88;5138406;28;20051;-62
2023/08/21 01:23:42;;;;;;;18.00;14.85;;;;;;;19.87;100.00;99490.59;5137226;27;20328;-62
2023/08/21 01:26:08;;;;;;;14.93;12.63;;;;;;;19.82;100.00;99495.81;5138437;28;20051;-57
2023/08/21 01:28:34;;;;;;;15.63;13.25;;;;;;;19.78;100.00;99489.53;5137917;28;20428;-58
2023/08/21 01:31:07;;;;;;;15.32;13.68;;;;;;;19.70;100.00;99486.06;5138333;28;20474;-59
2023/08/21 01:33:37;;;;;;;16.05;13.10;;;;;;;19.68;100.00;99489.25;5138015;28;20142;-62
2023/08/21 01:36:04;;;;;;;19.02;14.65;;;;;;;19.62;100.00;99465.88;5138031;28;20047;-56
2023/08/21 01:38:31;;;;;;;17.75;13.88;;;;;;;19.71;100.00;99457.81;5138154;27;20119;-60
2023/08/21 01:40:58;;;;;;;21.67;19.45;;;;;;;19.74;100.00;99447.88;5137926;28;20051;-61
2023/08/21 01:43:24;;;;;;;16.77;13.50;;;;;;;19.72;100.00;99466.94;5137912;28;20059;-55
2023/08/21 01:45:50;;;;;;;19.05;13.55;;;;;;;19.72;100.00;99462.19;5137770;28;20138;-63
2023/08/21 01:48:16;;;;;;;20.90;14.15;;;;;;;19.70;100.00;99464.59;5137947;28;20134;-60
2023/08/21 01:50:42;;;;;;;14.52;12.57;;;;;;;19.59;100.00;99472.25;5137676;28;20082;-58
2023/08/21 01:53:08;;;;;;;18.25;14.10;;;;;;;19.59;100.00;99471.47;5138058;28;20138;-57
2023/08/21 01:55:34;;;;;;;17.88;13.48;;;;;;;19.47;100.00;99439.47;5137512;28;20425;-55
2023/08/21 01:58:00;;;;;;;17.42;14.50;;;;;;;19.54;100.00;99422.69;5137920;28;20047;-57
2023/08/21 02:00:26;;;;;;;16.67;13.57;;;;;;;19.73;100.00;99415.69;5137674;28;20142;-56
2023/08/21 02:02:52;;;;;;;16.58;13.73;;;;;;;19.71;100.00;99432.78;5137548;28;20043;-55
2023/08/21 02:05:18;;;;;;;16.35;12.82;;;;;;;19.70;100.00;99433.22;5137706;28;20133;-55
2023/08/21 02:07:44;;;;;;;19.40;17.70;;;;;;;19.67;100.00;99434.84;5137303;27;20424;-57
2023/08/21 02:10:10;;;;;;;15.98;11.43;;;;;;;19.65;100.00;99434.47;5137687;28;20089;-58
2023/08/21 02:12:36;;;;;;;15.85;12.88;;;;;;;19.76;100.00;99437.13;5137482;28;20158;-55
2023/08/21 02:15:03;;;;;;;17.02;12.45;;;;;;;19.70;100.00;99458.25;5137688;28;20051;-59
2023/08/21 02:17:30;;;;;;;16.58;15.02;;;;;;;19.64;100.00;99474.63;5137307;28;20047;-57
2023/08/21 02:19:56;;;;;;;15.27;13.27;;;;;;;19.66;100.00;99477.78;5137644;28;20146;-56
2023/08/21 02:22:22;;;;;;;19.60;12.02;;;;;;;19.62;100.00;99484.56;5137050;28;20079;-57
2023/08/21 02:24:48;;;;;;;14.38;11.32;;;;;;;19.52;100.00;99489.84;5137604;28;20378;-58
2023/08/21 02:27:14;;;;;;;19.23;17.58;;;;;;;19.47;100.00;99490.31;5137122;28;20058;-59
2023/08/21 02:29:40;;;;;;;15.80;12.45;;;;;;;19.41;100.00;99497.53;5137284;28;20320;-62
2023/08/21 02:32:06;;;;;;;15.98;12.18;;;;;;;19.39;100.00;99493.59;5137090;28;20440;-61
2023/08/21 02:34:32;;;;;;;15.00;12.55;;;;;;;19.27;100.00;99503.28;5137132;28;20126;-58
2023/08/21 02:36:58;;;;;;;20.85;18.95;;;;;;;19.29;100.00;99492.53;5140672;27;20079;-55
2023/08/21 02:39:24;;;;;;;19.08;12.27;;;;;;;19.32;100.00;99488.13;5140699;27;20051;-60
2023/08/21 02:41:50;;;;;;;14.65;11.60;;;;;;;19.34;100.00;99475.41;5140833;28;20184;-58
2023/08/21 02:44:16;;;;;;;18.90;13.00;;;;;;;19.33;100.00;99493.28;5140614;28;20143;-59
2023/08/21 02:46:42;;;;;;;15.77;12.98;;;;;;;19.27;100.00;99490.16;5141089;28;20081;-59
2023/08/21 02:49:08;;;;;;;20.38;18.45;;;;;;;19.25;100.00;99492.56;5140440;28;20078;-59
2023/08/21 02:51:34;;;;;;;15.13;12.85;;;;;;;19.27;100.00;99489.38;5140876;28;20428;-60
2023/08/21 02:54:00;;;;;;;18.90;17.00;;;;;;;19.28;100.00;99490.94;5140395;28;20086;-61
2023/08/21 02:56:26;;;;;;;17.38;11.88;;;;;;;19.27;100.00;99497.72;5140808;28;20082;-62
2023/08/21 02:58:52;;;;;;;18.27;12.85;;;;;;;19.30;100.00;99501.66;5140286;28;20137;-61
2023/08/21 03:01:18;;;;;;;16.55;12.88;;;;;;;19.39;100.00;99488.03;5140504;28;20090;-62
2023/08/21 03:03:44;;;;;;;16.75;12.48;;;;;;;19.41;100.00;99494.75;5140387;28;20058;-56
2023/08/21 03:06:10;;;;;;;15.23;11.98;;;;;;;19.33;100.00;99514.75;5140385;28;20070;-53
2023/08/21 03:08:36;;;;;;;15.32;12.32;;;;;;;19.35;100.00;99518.66;5140510;27;20133;-55
2023/08/21 03:11:03;;;;;;;16.10;11.95;;;;;;;19.30;100.00;99519.13;5140253;28;20087;-55
2023/08/21 03:13:28;;;;;;;15.45;11.73;;;;;;;19.32;100.00;99518.69;5140553;28;20061;-62
2023/08/21 03:15:54;;;;;;;15.43;12.45;;;;;;;19.31;100.00;99517.91;5140157;28;20108;-61
2023/08/21 03:18:20;;;;;;;18.38;12.50;;;;;;;19.28;100.00;99510.41;5140344;28;20058;-61
2023/08/21 03:20:46;;;;;;;17.10;12.88;;;;;;;19.40;100.00;99500.75;5140020;28;20097;-58
2023/08/21 03:23:13;;;;;;;15.73;12.32;;;;;;;19.39;100.00;99507.50;5140331;28;20134;-55
2023/08/21 03:25:39;;;;;;;14.70;11.20;;;;;;;19.35;100.00;99518.66;5140086;28;20142;-59
2023/08/21 03:28:05;;;;;;;17.40;11.90;;;;;;;19.44;100.00;99516.16;5140079;28;20055;-61
2023/08/21 03:30:31;;;;;;;13.40;11.43;;;;;;;19.41;100.00;99530.13;5140137;28;20319;-61
2023/08/21 03:32:57;;;;;;;15.48;12.50;;;;;;;19.51;100.00;99534.75;5139999;28;20138;-62
2023/08/21 03:35:23;;;;;;;15.05;11.93;;;;;;;19.48;100.00;99536.38;5140105;28;20142;-58
2023/08/21 03:37:49;;;;;;;16.65;12.32;;;;;;;19.57;100.00;99527.53;5139829;27;20324;-55
2023/08/21 03:40:15;;;;;;;19.52;17.63;;;;;;;19.79;100.00;99535.63;5140106;28;20058;-55
2023/08/21 03:42:43;;;;;;;15.43;12.70;;;;;;;19.89;100.00;99552.19;5139718;28;20047;-56
2023/08/21 03:45:09;;;;;;;19.00;17.30;;;;;;;19.98;100.00;99579.47;5139556;28;20388;-57
2023/08/21 03:47:35;;;;;;;12.27;11.02;;;;;;;19.94;100.00;99609.34;5138999;27;20055;-56
2023/08/21 03:50:01;;;;;;;14.38;11.15;;;;;;;20.09;100.00;99624.66;5140204;28;20115;-59
2023/08/21 03:52:26;;;;;;;13.93;11.25;;;;;;;20.27;100.00;99643.88;5139519;28;20412;-60
2023/08/21 03:54:52;;;;;;;13.10;10.98;;;;;;;20.50;100.00;99676.59;5139968;28;20082;-63
2023/08/21 03:57:19;;;;;;;12.27;10.73;;;;;;;20.81;100.00;99705.19;5139411;28;20329;-60
2023/08/21 03:59:45;;;;;;;13.15;10.48;;;;;;;21.14;100.00;99738.94;5139306;28;20062;-62
2023/08/21 04:02:11;;;;;;;16.25;14.85;;;;;;;21.48;100.00;99760.31;5139568;28;20055;-61
2023/08/21 04:04:37;;;;;;;13.85;10.35;;;;;;;21.64;100.00;99762.44;5139468;28;20047;-56
2023/08/21 04:07:03;;;;;;;14.73;9.80;;;;;;;21.94;100.00;99739.16;5139598;28;20054;-55
2023/08/21 04:09:29;;;;;;;11.23;9.57;;;;;;;22.20;100.00;99688.00;5139072;27;20138;-56
2023/08/21 04:11:54;;;;;;;15.15;9.10;;;;;;;22.28;100.00;99630.75;5139562;28;20047;-59
2023/08/21 04:14:21;;;;;;;11.50;10.05;;;;;;;22.66;100.00;99562.41;5139133;28;20067;-59
2023/08/21 04:16:47;;;;;;;13.15;10.68;;;;;;;22.92;100.00;99415.97;5139530;28;20134;-60
2023/08/21 04:19:13;;;;;;;11.43;10.32;;;;;;;23.05;100.00;99331.38;5138960;28;20431;-61
2023/08/21 04:21:39;;;;;;;11.18;9.15;;;;;;;22.95;100.00;99294.13;5139378;28;20062;-62
2023/08/21 04:24:05;;;;;;;11.25;9.20;;;;;;;22.70;100.00;99339.56;5138770;28;20393;-63
2023/08/21 04:26:31;;;;;;;10.75;9.57;;;;;;;22.46;100.00;99498.25;5139311;28;20133;-57
2023/08/21 04:28:57;;;;;;;10.75;9.65;;;;;;;22.30;100.00;99564.09;5139122;28;20093;-58
2023/08/21 04:31:23;;;;;;;13.68;11.07;;;;;;;22.30;100.00;99613.59;5138993;28;20078;-61
2023/08/21 04:33:49;;;;;;;12.98;11.15;;;;;;;22.25;100.00;99640.00;5139120;28;20383;-57
2023/08/21 04:36:16;;;;;;;12.55;10.95;;;;;;;22.25;100.00;99664.34;5138696;28;20054;-60
2023/08/21 04:38:42;;;;;;;14.80;12.02;;;;;;;22.23;100.00;99625.69;5139088;27;20051;-56
2023/08/21 04:41:08;;;;;;;21.58;18.75;;;;;;;22.34;100.00;99649.81;5138825;28;20120;-60
2023/08/21 04:43:34;;;;;;;18.33;16.38;;;;;;;22.29;100.00;99646.31;5138986;28;20115;-59
2023/08/21 04:46:00;;;;;;;18.02;14.57;;;;;;;22.35;100.00;99660.53;5138534;28;20421;-56
2023/08/21 04:48:27;;;;;;;16.83;14.88;;;;;;;22.44;100.00;99657.94;5139082;28;20043;-63
2023/08/21 04:50:53;;;;;;;17.67;14.70;;;;;;;22.46;100.00;99671.47;5138419;28;20421;-62
2023/08/21 04:53:18;;;;;;;17.13;14.73;;;;;;;22.77;100.00;99647.59;5138872;28;20139;-61
2023/08/21 04:55:44;;;;;;;21.73;14.70;;;;;;;22.81;100.00;99627.94;5138347;28;20142;-64
2023/08/21 04:58:10;;;;;;;24.92;15.27;;;;;;;22.86;100.00;99644.19;5138109;27;20361;-63
2023/08/21 05:00:36;;;;;;;17.98;12.32;;;;;;;22.94;100.00;99603.66;5137863;28;20145;-60
2023/08/21 05:03:03;;;;;;;18.10;10.63;;;;;;;22.73;100.00;99596.59;5138272;28;20065;-59
2023/08/21 05:05:30;;;;;;;17.58;10.98;;;;;;;22.77;100.00;99599.28;5138538;28;20047;-60
2023/08/21 05:07:56;;;;;;;10.95;9.07;;;;;;;23.18;100.00;99635.00;5138377;27;20384;-57
2023/08/21 05:10:21;;;;;;;15.45;10.30;;;;;;;23.21;100.00;99527.84;5138551;28;20123;-58
2023/08/21 05:12:47;;;;;;;17.50;10.15;;;;;;;23.32;100.00;99485.56;5138101;28;20051;-61
2023/08/21 05:15:14;;;;;;;13.15;9.75;;;;;;;23.98;100.00;99392.81;5138441;28;20047;-64
2023/08/21 05:17:40;;;;;;;14.98;10.63;;;;;;;24.37;100.00;99221.38;5137959;28;20043;-58
2023/08/21 05:20:14;;;;;;;18.70;11.07;;;;;;;23.93;100.00;99238.16;5196735;27;20148;-59
2023/08/21 05:22:40;;;;;;;16.35;10.80;;;;;;;24.34;100.00;99062.59;5175293;27;20046;-58
2023/08/21 05:25:07;;;;;;;13.70;10.35;;;;;;;24.76;100.00;99008.84;5175358;27;20614;-62
2023/08/21 05:27:33;;;;;;;11.63;9.30;;;;;;;25.20;100.00;98795.38;5175231;27;20403;-56
2023/08/21 05:30:00;;;;;;;12.73;10.02;;;;;;;25.76;100.00;98650.66;5175450;27;20061;-62
2023/08/21 05:32:26;;;;;;;16.60;9.32;;;;;;;26.16;100.00;98412.66;5175436;27;20133;-62
2023/08/21 05:34:51;;;;;;;13.93;9.02;;;;;;;26.55;100.00;98317.59;5175207;27;20428;-63
2023/08/21 05:37:18;;;;;;;14.55;9.52;;;;;;;27.08;100.00;98257.25;5175463;27;20115;-60
2023/08/21 05:39:44;;;;;;;19.63;8.88;;;;;;;27.83;100.00;98255.25;5175171;27;20191;-63
2023/08/21 05:42:10;;;;;;;15.27;12.10;;;;;;;28.05;100.00;98271.47;5175394;27;20042;-61
2023/08/21 05:44:36;;;;;;;13.68;10.82;;;;;;;28.35;100.00;98273.88;5174886;27;20054;-56
2023/08/21 05:47:02;;;;;;;14.32;12.00;;;;;;;28.46;100.00;98357.72;5175394;27;20096;-56
2023/08/21 05:49:28;;;;;;;12.32;11.13;;;;;;;29.12;100.00;98401.53;5174932;27;20103;-60
2023/08/21 05:51:56;;;;;;;11.82;10.30;;;;;;;28.51;100.00;98292.13;5175330;27;20047;-63
2023/08/21 05:54:23;;;;;;;15.80;10.80;;;;;;;29.22;100.00;98394.34;5175192;27;20058;-63
2023/08/21 05:56:49;;;;;;;10.57;9.07;;;;;;;29.60;100.00;98495.84;5174839;27;20479;-63
2023/08/21 05:59:27;;;;;;;13.00;10.52;;;;;;;29.93;100.00;98568.56;5174923;27;20085;-63
2023/08/21 06:01:52;;;;;;;12.00;10.32;;;;;;;30.04;100.00;98543.13;5174622;27;20071;-63
2023/08/21 06:04:18;;;;;;;10.50;9.50;;;;;;;30.44;100.00;98608.94;5174919;27;20078;-63
2023/08/21 06:06:44;;;;;;;10.75;8.45;;;;;;;30.46;100.00;98595.81;5174600;27;20073;-62
2023/08/21 06:09:10;;;;;;;9.98;8.98;;;;;;;30.68;100.00;98599.91;5174939;27;20347;-59
2023/08/21 06:11:38;;;;;;;10.32;9.30;;;;;;;30.82;100.00;98627.16;5174462;27;20050;-59
2023/08/21 06:14:04;;;;;;;9.98;8.48;;;;;;;30.73;100.00;98657.78;5174830;27;20057;-65
2023/08/21 06:16:30;;;;;;;10.55;8.88;;;;;;;31.50;100.00;98706.31;5174711;27;20130;-63
2023/08/21 06:18:56;;;;;;;10.85;9.23;;;;;;;30.85;100.00;98656.50;5174687;27;20042;-62
2023/08/21 06:21:22;;;;;;;9.00;8.18;;;;;;;30.75;100.00;98660.84;5174589;27;20319;-59
2023/08/21 06:23:48;;;;;;;8.85;8.00;;;;;;;31.60;100.00;98716.06;5174490;27;20058;-59
2023/08/21 06:26:14;;;;;;;10.30;8.02;;;;;;;31.86;100.00;98761.06;5174337;27;20479;-59
2023/08/21 06:28:40;;;;;;;9.20;8.32;;;;;;;32.05;100.00;98781.84;5174161;27;20082;-59
2023/08/21 06:31:08;;;;;;;12.65;8.57;;;;;;;32.29;100.00;98758.56;5163391;27;20053;-60
2023/08/21 06:33:34;;;;;;;8.32;7.25;;;;;;;31.59;100.00;98785.34;5160410;27;20057;-57
2023/08/21 06:36:01;;;;;;;9.45;7.43;;;;;;;32.23;100.00;98806.03;5160658;27;20050;-60
2023/08/21 06:38:27;;;;;;;7.60;6.90;;;;;;;32.11;100.00;98816.63;5160014;27;20105;-59
2023/08/21 06:40:53;;;;;;;9.75;6.85;;;;;;;32.31;100.00;98843.13;5160633;27;20130;-60
2023/08/21 06:43:19;;;;;;;6.88;6.25;;;;;;;32.62;100.00;98844.00;5160126;27;20411;-60
2023/08/21 06:45:45;;;;;;;9.20;7.95;;;;;;;32.50;100.00;98827.06;5160643;27;20126;-61
2023/08/21 06:48:11;;;;;;;9.98;7.97;;;;;;;32.02;100.00;98790.63;5159992;27;20340;-63
2023/08/21 06:50:37;;;;;;;9.20;7.28;;;;;;;32.77;100.00;98845.22;5160212;27;20054;-64
2023/08/21 06:53:03;;;;;;;10.57;7.30;;;;;;;33.47;100.00;98874.13;5159898;27;20047;-60
2023/08/21 06:55:29;;;;;;;6.88;6.28;;;;;;;32.83;100.00;98887.00;5160133;27;20046;-61
2023/08/21 06:57:55;;;;;;;13.45;8.00;;;;;;;31.13;100.00;98826.31;5160002;27;20585;-58
2023/08/21 07:00:21;;;;;;;13.38;7.35;;;;;;;33.31;100.00;98905.53;5160001;27;20042;-60
2023/08/21 07:02:48;;;;;;;19.33;9.95;;;;;;;33.53;100.00;98916.00;5159838;27;20046;-63
2023/08/21 07:05:14;;;;;;;16.05;9.73;;;;;;;33.33;100.00;98920.75;5159805;27;20042;-63
2023/08/21 07:07:40;;;;;;;24.30;11.38;;;;;;;33.74;100.00;98922.75;5160134;27;20055;-60
2023/08/21 07:10:06;;;;;;;21.00;11.23;;;;;;;33.39;100.00;98895.91;5159579;27;20134;-57
2023/08/21 07:12:32;;;;;;;19.13;11.95;;;;;;;34.03;100.00;98943.19;5159799;27;20046;-61
2023/08/21 07:14:58;;;;;;;25.00;14.18;;;;;;;33.04;100.00;98936.44;5159569;27;20046;-57
2023/08/21 07:17:24;;;;;;;21.88;14.02;;;;;;;33.64;100.00;98936.53;5159922;27;20051;-57
2023/08/21 07:19:52;;;;;;;18.20;11.25;;;;;;;34.27;100.00;98939.59;5159545;27;20138;-55
2023/08/21 07:22:18;;;;;;;17.67;11.25;;;;;;;33.90;100.00;98941.75;5159241;27;20050;-57
2023/08/21 07:24:44;;;;;;;9.25;7.43;;;;;;;34.02;100.00;98950.94;5159439;27;20408;-63
2023/08/21 07:27:10;;;;;;;10.45;6.72;;;;;;;33.87;100.00;98944.88;5159424;27;20089;-61
2023/08/21 07:29:36;;;;;;;9.80;6.88;;;;;;;34.13;100.00;98970.00;5159568;27;20077;-64
2023/08/21 07:32:02;;;;;;;18.38;9.40;;;;;;;33.65;100.00;98962.88;5159192;27;20510;-63
2023/08/21 07:34:28;;;;;;;13.73;8.23;;;;;;;33.55;100.00;98950.31;5159561;27;20066;-63
2023/08/21 07:36:54;;;;;;;8.60;6.05;;;;;;;33.73;100.00;98936.22;5159272;27;20042;-60
2023/08/21 07:39:20;;;;;;;12.45;6.40;;;;;;;33.72;100.00;98951.72;5159516;27;20050;-63
2023/08/21 07:41:46;;;;;;;6.40;5.78;;;;;;;33.53;100.00;98942.31;5158078;27;20129;-59
2023/08/21 07:44:12;;;;;;;10.65;7.57;;;;;;;32.95;100.00;98942.41;5159539;27;20126;-62
2023/08/21 07:46:38;;;;;;;8.60;7.10;;;;;;;33.13;100.00;98927.59;5158988;27;20142;-60
2023/08/21 07:49:04;;;;;;;9.20;7.15;;;;;;;33.64;100.00;98932.94;5158850;27;20051;-74
2023/08/21 07:51:30;;;;;;;22.95;12.45;;;;;;;33.06;100.00;98907.50;5158838;27;20065;-63
2023/08/21 07:53:56;;;;;;;25.25;15.23;;;;;;;33.37;100.00;98924.06;5158835;27;20046;-62
2023/08/21 07:56:22;;;;;;;22.05;12.98;;;;;;;33.87;100.00;98930.66;5158732;27;20049;-64
2023/08/21 07:58:48;;;;;;;22.30;15.88;;;;;;;33.57;100.00;98914.38;5158647;27;20331;-62
2023/08/21 08:01:14;;;;;;;23.42;14.55;;;;;;;33.92;100.00;98910.72;5159097;27;20436;-56
2023/08/21 08:03:40;;;;;;;20.50;12.65;;;;;;;34.29;100.00;98931.25;5158592;27;20145;-54
2023/08/21 08:06:06;;;;;;;13.50;9.88;;;;;;;34.61;100.00;98937.91;5159003;27;20086;-56
2023/08/21 08:08:32;;;;;;;16.20;9.15;;;;;;;34.55;100.00;98936.41;5158609;27;20051;-57
2023/08/21 08:11:02;;;;;;;15.88;8.63;;;;;;;34.65;100.00;98932.66;5158971;27;20086;-62
2023/08/21 08:13:28;;;;;;;15.82;9.93;;;;;;;34.56;100.00;98929.44;5158510;27;20047;-63
2023/08/21 08:15:54;;;;;;;13.20;9.50;;;;;;;34.05;100.00;98934.88;5158790;27;20195;-64
2023/08/21 08:18:20;;;;;;;18.85;7.88;;;;;;;34.58;100.00;98953.19;5158711;27;20110;-61
2023/08/21 08:20:46;;;;;;;12.05;7.65;;;;;;;34.93;100.00;98957.16;5158570;27;20145;-58
2023/08/21 08:23:12;;;;;;;14.70;8.23;;;;;;;34.73;100.00;98963.38;5159048;27;20054;-57
2023/08/21 08:25:38;;;;;;;10.88;7.18;;;;;;;34.17;100.00;98953.38;5158812;27;20073;-56
2023/08/21 08:28:05;;;;;;;14.80;8.88;;;;;;;34.45;100.00;98958.75;5159315;27;20043;-61
2023/08/21 08:30:31;;;;;;;16.40;8.57;;;;;;;34.64;100.00;98962.44;5158486;27;20487;-63
2023/08/21 08:32:57;;;;;;;13.40;7.55;;;;;;;35.04;100.00;98965.56;5158672;27;20050;-60
2023/08/21 08:35:23;;;;;;;10.65;8.35;;;;;;;34.01;100.00;98946.56;5158464;27;20128;-60
2023/08/21 08:37:49;;;;;;;11.65;8.98;;;;;;;33.78;100.00;98922.47;5158557;27;20051;-59
2023/08/21 08:40:15;;;;;;;12.77;9.77;;;;;;;34.32;100.00;98958.66;5158159;27;20145;-60
2023/08/21 08:42:41;;;;;;;17.42;8.73;;;;;;;34.73;100.00;98937.75;5158684;27;20046;-57
2023/08/21 08:45:08;;;;;;;15.25;8.60;;;;;;;35.05;100.00;98937.84;5158041;27;20092;-61
2023/08/21 08:47:35;;;;;;;13.00;8.40;;;;;;;34.30;100.00;98932.81;5158442;27;20047;-58
2023/08/21 08:50:03;;;;;;;11.48;8.65;;;;;;;34.62;100.00;98921.56;5158055;27;20055;-59
2023/08/21 08:52:31;;;;;;;15.85;9.95;;;;;;;34.61;100.00;98932.19;5158204;27;20355;-61
2023/08/21 08:54:58;;;;;;;15.52;10.32;;;;;;;34.25;100.00;98931.56;5158107;27;20425;-56
2023/08/21 08:57:24;;;;;;;11.85;8.50;;;;;;;35.06;100.00;98923.09;5158060;27;20137;-62
2023/08/21 08:59:50;;;;;;;10.75;9.40;;;;;;;35.12;100.00;98926.63;5158000;27;20141;-58
2023/08/21 09:02:16;;;;;;;14.98;8.05;;;;;;;33.73;100.00;98910.63;5157712;27;20089;-59
2023/08/21 09:04:42;;;;;;;11.85;7.80;;;;;;;33.37;100.00;98894.91;5158197;27;20057;-58
2023/08/21 09:07:09;;;;;;;11.07;8.10;;;;;;;33.09;100.00;98858.19;5157842;27;20055;-62
2023/08/21 09:09:38;;;;;;;14.98;9.65;;;;;;;32.95;100.00;98843.03;5158315;27;20141;-61
2023/08/21 09:12:11;;;;;;;10.13;8.18;;;;;;;32.22;100.00;98804.47;5157838;27;20334;-56
2023/08/21 09:14:37;;;;;;;13.23;8.73;;;;;;;32.69;100.00;98807.34;5157961;27;20046;-58
2023/08/21 09:17:03;;;;;;;9.70;8.68;;;;;;;32.64;100.00;98779.00;5157723;27;20335;-60
2023/08/21 09:19:30;;;;;;;9.95;7.55;;;;;;;33.05;100.00;98807.34;5157635;27;20317;-56
2023/08/21 09:21:56;;;;;;;13.02;7.60;;;;;;;33.70;100.00;98840.63;5157718;27;20133;-60
2023/08/21 09:24:22;;;;;;;12.48;8.18;;;;;;;33.39;100.00;98846.81;5157764;27;20328;-54
2023/08/21 09:26:48;;;;;;;11.18;9.10;;;;;;;31.98;100.00;98762.56;5157619;27;20357;-61
2023/08/21 09:29:14;;;;;;;11.77;7.30;;;;;;;31.50;100.00;98757.31;5157679;27;20150;-57
2023/08/21 09:31:40;;;;;;;8.77;7.25;;;;;;;30.63;100.00;98713.84;5157899;27;20046;-61
2023/08/21 09:34:06;;;;;;;11.63;8.57;;;;;;;30.98;100.00;98685.03;5157379;27;20102;-62
2023/08/21 09:36:34;;;;;;;12.25;9.13;;;;;;;31.05;100.00;98675.25;5157820;27;20221;-58
2023/08/21 09:39:00;;;;;;;10.10;7.88;;;;;;;30.79;100.00;98682.00;5157112;27;20042;-64
2023/08/21 09:41:26;;;;;;;14.40;9.15;;;;;;;30.89;100.00;98609.69;5157742;27;20055;-61
2023/08/21 09:43:53;;;;;;;10.93;7.53;;;;;;;31.53;100.00;98617.47;5157571;27;20047;-59
2023/08/21 09:46:24;;;;;;;11.93;7.00;;;;;;;32.30;100.00;98694.84;5157385;27;20438;-63
2023/08/21 09:48:52;;;;;;;14.52;7.68;;;;;;;32.04;100.00;98691.66;5157120;27;20062;-62
2023/08/21 09:51:18;;;;;;;12.77;7.40;;;;;;;31.75;100.00;98710.84;5157393;27;20137;-61
2023/08/21 09:53:45;;;;;;;9.43;6.93;;;;;;;30.43;100.00;98621.53;5157416;27;20137;-60
2023/08/21 09:56:12;;;;;;;10.57;7.05;;;;;;;30.38;100.00;98585.53;5157152;27;20055;-55
2023/08/21 09:58:38;;;;;;;7.90;7.10;;;;;;;30.73;100.00;98627.44;5157375;27;20051;-57
2023/08/21 10:01:11;;;;;;;12.95;7.85;;;;;;;31.26;100.00;98645.34;5157134;27;20439;-59
2023/08/21 10:03:39;;;;;;;8.23;6.88;;;;;;;31.98;100.00;98686.03;5157472;27;20103;-65
2023/08/21 10:06:06;;;;;;;9.00;6.60;;;;;;;32.52;100.00;98749.91;5159121;27;20051;-59
2023/08/21 10:08:36;;;;;;;9.75;7.00;;;;;;;33.15;100.00;98770.88;5160701;27;20316;-63
2023/08/21 10:11:05;;;;;;;6.97;5.88;;;;;;;32.13;100.00;98767.91;5160943;27;20055;-55
2023/08/21 10:13:32;;;;;;;9.77;6.82;;;;;;;31.69;100.00;98729.94;5160795;27;20042;-60
2023/08/21 10:15:58;;;;;;;9.75;7.25;;;;;;;31.44;100.00;98678.00;5160892;27;20336;-57
2023/08/21 10:18:29;;;;;;;11.52;7.40;;;;;;;32.03;100.00;98707.91;5160467;27;20050;-62
2023/08/21 10:20:55;;;;;;;7.85;6.95;;;;;;;31.82;100.00;98747.16;5160793;27;20319;-63
2023/08/21 10:23:25;;;;;;;8.05;6.70;;;;;;;32.22;100.00;98732.81;5160469;27;20051;-60
2023/08/21 10:25:55;;;;;;;9.63;6.70;;;;;;;32.22;100.00;98727.13;5160706;27;20050;-61
2023/08/21 10:28:21;;;;;;;8.38;6.68;;;;;;;33.06;100.00;98769.16;5160315;27;20133;-60
2023/08/21 10:30:47;;;;;;;9.40;6.47;;;;;;;31.93;100.00;98740.69;5160785;27;20053;-57
2023/08/21 10:33:13;;;;;;;9.77;7.85;;;;;;;32.63;100.00;98738.50;5160135;27;20051;-59
2023/08/21 10:35:39;;;;;;;10.77;6.80;;;;;;;31.26;100.00;98651.00;5160447;27;20077;-61
2023/08/21 10:38:06;;;;;;;9.60;6.93;;;;;;;31.18;100.00;98650.00;5160459;27;20137;-64
2023/08/21 10:40:33;;;;;;;11.90;8.25;;;;;;;31.21;100.00;98625.53;5160079;27;20051;-60
2023/08/21 10:43:00;;;;;;;10.85;7.40;;;;;;;30.99;100.00;98626.34;5160419;27;20050;-65
2023/08/21 10:45:26;;;;;;;7.43;6.72;;;;;;;30.84;100.00;98584.22;5160090;27;20146;-61
2023/08/21 10:47:52;;;;;;;12.38;8.43;;;;;;;31.51;100.00;98600.97;5160283;27;20113;-61
2023/08/21 10:50:19;;;;;;;12.52;7.35;;;;;;;32.12;100.00;98641.59;5159854;27;20455;-62
2023/08/21 10:52:46;;;;;;;13.65;8.13;;;;;;;31.94;100.00;98657.19;5160474;27;20050;-63
2023/08/21 10:55:13;;;;;;;11.52;7.10;;;;;;;31.92;100.00;98681.69;5160039;27;20323;-63
2023/08/21 10:57:41;;;;;;;12.82;7.80;;;;;;;32.60;100.00;98677.13;5160449;27;20133;-62
2023/08/21 11:00:09;;;;;;;11.35;6.57;;;;;;;32.92;100.00;98736.19;5159864;27;20050;-63
2023/08/21 11:02:37;;;;;;;7.53;5.47;;;;;;;32.68;100.00;98768.13;5159812;27;20060;-63
2023/08/21 11:05:03;;;;;;;7.32;5.93;;;;;;;32.61;100.00;98789.31;5159808;27;20159;-60
2023/08/21 11:07:36;;;;;;;5.97;5.45;;;;;;;33.31;100.00;98760.66;5159851;27;20106;-58
2023/08/21 11:10:03;;;;;;;8.32;5.47;;;;;;;33.10;100.00;98771.69;5160007;27;20150;-61